Port Edwards, Wisconsin
Current Conditions -  °F | °C
As of 12:54 AM on Thursday 23 Oct 2014 (Local Time) from KISW Reporting Station
Clear Clear  
Wind Chill: 36°   Ceiling: Unl
Heat Index: 41°   Visibility: 10mi
Dew Point: 36°   Wind: 7mph
Humidity: 82%   Direction: 150°SSE
Pressure: 30.18"   Gusts: NA
Location:  44.35°N, 89.87°W
Report Text: KISW 230554Z AUTO 15006KT 10SM CLR 05/02 A3018 RMK AO2 SLP226 T00500022 10089 20044 401391033 58009 $
Loading
Personal Weather Stations






























Interactive Weather Map
Tropical Storm Tracking
New forecast layout! Learn more

10-Day Weather Forecast

Advertisements
Track Severe Weather on mobile